Terminal Aerodrome Forecast
Issued by NWS Tampa Bay Area, FL

Home | Current Version | Previous Version | Text Only | Print | Product List | Glossary On
Versions: 1 2 3 4 5 6 7 8 9 10 11 12 13
413
FTUS42 KTBW 210533
TAFFMY
TAF
KFMY 210533Z 2106/2206 06004KT P6SM BKN100
     FM210800 06004KT P6SM SCT100 SCT250
     FM211400 06006KT P6SM SCT030 SCT250
     FM211700 06007KT P6SM BKN050
     FM212000 04008KT P6SM VCTS SCT035CB BKN060
     FM220200 07006KT P6SM SCT060 SCT250=

USA.gov is the U.S. government's official web portal to all federal, state and local government web resources and services.